Time;durP1;ratioP1;P1;durP2;ratioP2;P2;SDS_P1;SDS_P2;PMS_P1;PMS_P2;Temp;Humidity;BMP_temperature;BMP_pressure;BME280_temperature;BME280_humidity;BME280_pressure;Samples;Min_cycle;Max_cycle;Signal;HPM_P1;HPM_P2
2023/03/05 00:02:08;;;;;;;3.23;2.53;;;8.60;92.90;;;;;;4915678;29;20197;-79
2023/03/05 00:04:34;;;;;;;2.80;2.60;;;8.60;93.40;;;;;;4915415;29;20536;-80
2023/03/05 00:06:59;;;;;;;4.57;2.73;;;8.60;93.60;;;;;;4916781;29;20188;-80
2023/03/05 00:09:25;;;;;;;3.30;3.00;;;8.60;93.40;;;;;;4914422;29;20201;-80
2023/03/05 00:11:51;;;;;;;2.80;2.57;;;8.60;93.40;;;;;;4915032;29;20230;-79
2023/03/05 00:14:16;;;;;;;3.30;2.40;;;8.60;93.10;;;;;;4915321;29;20224;-80
2023/03/05 00:16:42;;;;;;;2.60;2.40;;;8.70;93.00;;;;;;4916988;29;20696;-79
2023/03/05 00:19:09;;;;;;;3.57;3.27;;;8.70;93.20;;;;;;4914294;29;20186;-79
2023/03/05 00:21:38;;;;;;;11.43;3.03;;;8.60;92.90;;;;;;4916452;29;20445;-79
2023/03/05 00:24:11;;;;;;;3.27;2.60;;;8.60;93.20;;;;;;4916861;29;20441;-79
2023/03/05 00:26:38;;;;;;;5.03;3.47;;;8.60;93.20;;;;;;4916398;29;20462;-79
2023/03/05 00:29:05;;;;;;;3.13;2.83;;;8.60;93.30;;;;;;4914804;29;22602;-79
2023/03/05 00:31:32;;;;;;;5.80;2.67;;;8.60;93.40;;;;;;4916595;29;20486;-79
2023/03/05 00:34:10;;;;;;;4.30;3.60;;;8.60;93.50;;;;;;4915671;29;20439;-79
2023/03/05 00:36:41;;;;;;;3.80;3.50;;;8.50;93.30;;;;;;4916553;29;20430;-79
2023/03/05 00:39:07;;;;;;;5.17;3.43;;;8.60;93.30;;;;;;4916617;29;20415;-79
2023/03/05 00:41:32;;;;;;;7.07;3.70;;;8.60;93.40;;;;;;4916876;29;20912;-79
2023/03/05 00:43:58;;;;;;;6.67;3.50;;;8.50;93.70;;;;;;4914738;29;20236;-79
2023/03/05 00:46:26;;;;;;;3.80;3.20;;;8.60;94.10;;;;;;4914204;29;20208;-80
2023/03/05 00:48:52;;;;;;;7.30;4.10;;;8.50;94.30;;;;;;4916115;29;20434;-79
2023/03/05 00:51:18;;;;;;;5.77;3.70;;;8.50;94.60;;;;;;4929481;29;20474;-81
2023/03/05 00:53:44;;;;;;;5.37;3.40;;;8.50;94.80;;;;;;4913969;29;20430;-80
2023/03/05 00:56:10;;;;;;;5.30;3.77;;;8.50;95.00;;;;;;4898753;29;20418;-80
2023/03/05 00:58:36;;;;;;;7.30;3.30;;;8.50;95.00;;;;;;4916091;29;20434;-80
2023/03/05 01:01:03;;;;;;;5.53;3.30;;;8.50;95.70;;;;;;4915268;29;20640;-81
2023/03/05 01:03:30;;;;;;;4.10;3.50;;;8.50;95.70;;;;;;4915801;29;21294;-81
2023/03/05 01:05:56;;;;;;;6.73;3.30;;;8.50;96.00;;;;;;4913961;29;20434;-81
2023/03/05 01:08:23;;;;;;;3.43;3.03;;;8.50;95.90;;;;;;4914930;29;20442;-81
2023/03/05 01:10:48;;;;;;;3.60;3.30;;;8.50;96.00;;;;;;4916505;29;20469;-81
2023/03/05 01:13:14;;;;;;;3.97;3.63;;;8.50;96.60;;;;;;4915018;29;20446;-81
2023/03/05 01:15:40;;;;;;;5.10;3.80;;;8.50;97.40;;;;;;4914416;29;20552;-81
2023/03/05 01:18:06;;;;;;;6.70;3.73;;;8.50;98.60;;;;;;4916198;29;20171;-81
2023/03/05 01:20:31;;;;;;;4.53;4.13;;;8.50;99.40;;;;;;4913785;29;20245;-81
2023/03/05 01:22:58;;;;;;;11.10;4.67;;;8.50;99.60;;;;;;4913750;29;20196;-80
2023/03/05 01:25:24;;;;;;;10.20;4.73;;;8.50;99.90;;;;;;4913682;29;20265;-80
2023/03/05 01:27:51;;;;;;;10.97;4.47;;;8.40;99.90;;;;;;4915451;29;20442;-80
2023/03/05 01:30:17;;;;;;;7.67;4.93;;;8.40;99.90;;;;;;4914623;29;20474;-80
2023/03/05 01:32:43;;;;;;;5.80;4.90;;;8.40;99.90;;;;;;4915400;29;20444;-80
2023/03/05 01:35:15;;;;;;;9.73;5.53;;;8.40;99.90;;;;;;4914487;29;20190;-81
2023/03/05 01:37:41;;;;;;;8.73;5.07;;;8.40;99.90;;;;;;4915194;29;20182;-81
2023/03/05 01:40:09;;;;;;;6.30;4.70;;;8.50;99.90;;;;;;4915257;29;20492;-81
2023/03/05 01:42:34;;;;;;;5.43;4.10;;;8.40;99.90;;;;;;4914815;29;20482;-80
2023/03/05 01:45:11;;;;;;;5.70;4.67;;;8.50;99.90;;;;;;4915293;29;20450;-81
2023/03/05 01:47:38;;;;;;;6.07;4.50;;;8.40;99.90;;;;;;4915739;29;20186;-80
2023/03/05 01:50:06;;;;;;;7.40;5.27;;;8.40;99.90;;;;;;4918600;29;20957;-80
2023/03/05 01:52:34;;;;;;;8.40;6.17;;;8.40;99.90;;;;;;4918307;29;21308;-81
2023/03/05 01:55:05;;;;;;;6.13;5.47;;;8.40;99.90;;;;;;4919326;29;20551;-80
2023/03/05 01:57:37;;;;;;;9.37;5.50;;;8.40;99.90;;;;;;4917052;29;20471;-81
2023/03/05 02:00:10;;;;;;;6.00;4.73;;;8.40;99.90;;;;;;4920010;29;20886;-80
2023/03/05 02:02:36;;;;;;;9.10;6.13;;;8.30;99.90;;;;;;4917072;29;20934;-80
2023/03/05 02:05:12;;;;;;;10.20;7.10;;;8.40;99.90;;;;;;4917678;29;20438;-81
2023/03/05 02:07:41;;;;;;;9.63;7.07;;;8.40;99.90;;;;;;4918264;29;20627;-81
2023/03/05 02:10:19;;;;;;;11.27;8.83;;;8.30;99.90;;;;;;4919120;29;20868;-81
2023/03/05 02:12:47;;;;;;;12.33;8.53;;;8.30;99.90;;;;;;4917244;29;20953;-80
2023/03/05 02:15:13;;;;;;;12.67;9.23;;;8.30;99.90;;;;;;4917496;29;20450;-81
2023/03/05 02:17:39;;;;;;;11.07;7.90;;;8.30;99.90;;;;;;4919673;29;20415;-81
2023/03/05 02:20:20;;;;;;;9.73;7.20;;;8.30;99.90;;;;;;4901826;29;20499;-81
2023/03/05 02:22:46;;;;;;;8.17;6.93;;;8.30;99.90;;;;;;4917936;29;20245;-81
2023/03/05 02:25:26;;;;;;;9.13;8.17;;;8.30;99.90;;;;;;4918173;29;20411;-80
2023/03/05 02:28:21;;;;;;;9.60;6.90;;;8.20;99.90;;;;;;4918764;29;20191;-81
2023/03/05 02:30:47;;;;;;;11.73;7.77;;;8.20;99.90;;;;;;4917441;29;20465;-81
2023/03/05 02:33:14;;;;;;;11.40;8.50;;;8.30;99.90;;;;;;4917507;29;20934;-80
2023/03/05 02:35:42;;;;;;;11.47;7.80;;;8.10;99.90;;;;;;4901349;29;21012;-81
2023/03/05 02:38:09;;;;;;;12.77;7.80;;;8.00;99.90;;;;;;4918089;29;20502;-81
2023/03/05 02:40:35;;;;;;;10.87;8.63;;;7.90;99.90;;;;;;4916449;29;21264;-81
2023/03/05 02:43:00;;;;;;;11.13;8.30;;;7.90;99.90;;;;;;4918101;29;20481;-80
2023/03/05 02:45:26;;;;;;;13.20;8.10;;;7.80;99.90;;;;;;4916198;29;20189;-81
2023/03/05 02:47:54;;;;;;;11.90;7.80;;;7.80;99.90;;;;;;4918952;29;20825;-81
2023/03/05 02:50:20;;;;;;;12.87;9.20;;;7.90;99.90;;;;;;4915897;29;20709;-81
2023/03/05 02:52:45;;;;;;;11.20;8.00;;;7.90;99.90;;;;;;4917842;29;20452;-81
2023/03/05 02:55:11;;;;;;;10.37;8.00;;;8.00;99.90;;;;;;4915928;29;20525;-81
2023/03/05 02:57:37;;;;;;;10.80;8.00;;;8.00;99.90;;;;;;4916893;29;20784;-81
2023/03/05 03:00:04;;;;;;;12.97;8.23;;;8.00;99.90;;;;;;4917254;29;20652;-81
2023/03/05 03:02:30;;;;;;;9.50;7.90;;;8.00;99.90;;;;;;4917036;29;20218;-81
2023/03/05 03:04:56;;;;;;;9.73;8.73;;;8.00;99.90;;;;;;4916608;29;20474;-80
2023/03/05 03:07:22;;;;;;;13.87;8.17;;;8.00;99.90;;;;;;4917716;29;20249;-81
2023/03/05 03:09:47;;;;;;;10.30;8.50;;;8.00;99.90;;;;;;4917428;29;20196;-81
2023/03/05 03:12:13;;;;;;;10.37;9.20;;;8.00;99.90;;;;;;4900475;29;20285;-81
2023/03/05 03:14:41;;;;;;;7.80;6.40;;;8.00;99.90;;;;;;4916593;29;20295;-81
2023/03/05 03:17:12;;;;;;;9.03;5.83;;;8.10;99.90;;;;;;4915847;29;20845;-81
2023/03/05 03:19:38;;;;;;;9.63;7.00;;;8.00;99.90;;;;;;4916912;29;20448;-81
2023/03/05 03:22:05;;;;;;;8.10;6.13;;;8.00;99.90;;;;;;4916400;29;20832;-81
2023/03/05 03:24:32;;;;;;;5.70;5.10;;;8.00;99.90;;;;;;4916257;29;20919;-81
2023/03/05 03:26:58;;;;;;;8.33;5.77;;;8.00;99.90;;;;;;4917423;29;20437;-81
2023/03/05 03:29:24;;;;;;;7.50;5.40;;;8.00;99.90;;;;;;4916868;29;20434;-81
2023/03/05 03:31:50;;;;;;;6.23;4.93;;;8.00;99.90;;;;;;4917364;29;20260;-81
2023/03/05 03:34:16;;;;;;;4.90;4.17;;;8.00;99.90;;;;;;4917646;29;20415;-80
2023/03/05 03:36:43;;;;;;;4.97;4.47;;;7.90;99.90;;;;;;4916697;29;20473;-80
2023/03/05 03:39:09;;;;;;;4.90;3.90;;;7.90;99.90;;;;;;4900285;29;20435;-81
2023/03/05 03:41:46;;;;;;;5.50;4.13;;;7.90;99.90;;;;;;4916050;29;20661;-81
2023/03/05 03:44:13;;;;;;;4.70;3.97;;;7.90;99.90;;;;;;4917513;29;20546;-80
2023/03/05 03:46:39;;;;;;;5.27;3.73;;;7.90;99.90;;;;;;4916090;29;20461;-80
2023/03/05 03:49:07;;;;;;;6.53;4.73;;;7.90;99.90;;;;;;4917171;29;20433;-81
2023/03/05 03:51:33;;;;;;;5.40;4.20;;;7.90;99.90;;;;;;4899240;29;20468;-81
2023/03/05 03:53:59;;;;;;;4.10;3.70;;;7.90;99.90;;;;;;4917195;29;20445;-81
2023/03/05 03:56:25;;;;;;;4.30;3.80;;;7.90;99.90;;;;;;4914964;29;20434;-80
2023/03/05 03:58:52;;;;;;;6.50;3.90;;;7.90;99.90;;;;;;4917868;29;20414;-81
2023/03/05 04:01:19;;;;;;;6.70;4.00;;;7.90;99.90;;;;;;4910263;29;20578;-81
2023/03/05 04:03:45;;;;;;;5.57;4.03;;;7.90;99.90;;;;;;4915601;29;20471;-80
2023/03/05 04:06:11;;;;;;;5.50;4.13;;;7.80;99.90;;;;;;4917532;29;20410;-80
2023/03/05 04:08:37;;;;;;;4.57;4.07;;;7.80;99.90;;;;;;4914257;29;20689;-81
2023/03/05 04:11:03;;;;;;;6.97;4.77;;;7.80;99.90;;;;;;4915956;29;20563;-80
2023/03/05 04:13:29;;;;;;;6.17;4.43;;;7.80;99.90;;;;;;4915494;29;20211;-80
2023/03/05 04:15:54;;;;;;;6.30;4.50;;;7.80;99.90;;;;;;4915687;29;20473;-81
2023/03/05 04:18:20;;;;;;;6.93;5.80;;;7.80;99.90;;;;;;4915818;29;20236;-80
2023/03/05 04:20:46;;;;;;;6.63;4.77;;;7.70;99.90;;;;;;4916950;29;20887;-80
2023/03/05 04:23:12;;;;;;;5.90;4.40;;;7.70;99.90;;;;;;4914711;29;20295;-80
2023/03/05 04:25:38;;;;;;;5.50;4.67;;;7.80;99.90;;;;;;4914553;29;20678;-80
2023/03/05 04:28:04;;;;;;;4.37;3.90;;;7.70;99.90;;;;;;4916603;29;20641;-80
2023/03/05 04:30:30;;;;;;;7.50;4.60;;;7.60;99.90;;;;;;4914400;29;20471;-81
2023/03/05 04:32:56;;;;;;;6.03;4.17;;;7.60;99.90;;;;;;4916254;29;20449;-81
2023/03/05 04:35:22;;;;;;;8.00;4.60;;;7.70;99.90;;;;;;4915550;29;20536;-81
2023/03/05 04:37:47;;;;;;;5.23;3.57;;;7.60;99.90;;;;;;4916864;29;20492;-81
2023/03/05 04:40:13;;;;;;;4.40;4.00;;;7.60;99.90;;;;;;4916219;29;20531;-81
2023/03/05 04:42:39;;;;;;;4.50;4.00;;;7.50;99.90;;;;;;4915164;29;20212;-80
2023/03/05 04:45:06;;;;;;;4.40;3.70;;;7.50;99.90;;;;;;4915162;29;20468;-80
2023/03/05 04:47:32;;;;;;;4.83;4.33;;;7.50;99.90;;;;;;4915657;29;20259;-80
2023/03/05 04:49:58;;;;;;;4.70;4.17;;;7.60;99.90;;;;;;4915349;29;20465;-80
2023/03/05 04:52:24;;;;;;;4.40;4.00;;;7.50;99.90;;;;;;4913949;29;20925;-80
2023/03/05 04:54:50;;;;;;;5.13;4.27;;;7.50;99.90;;;;;;4915070;29;20228;-80
2023/03/05 04:57:16;;;;;;;5.40;4.57;;;7.50;99.90;;;;;;4916178;29;20185;-80
2023/03/05 04:59:41;;;;;;;8.23;4.47;;;7.50;99.90;;;;;;4914789;29;20778;-80
2023/03/05 05:02:07;;;;;;;5.13;4.63;;;7.50;99.90;;;;;;4914985;29;20426;-81
2023/03/05 05:04:34;;;;;;;5.27;4.17;;;7.50;99.90;;;;;;4915169;29;20262;-80
2023/03/05 05:07:01;;;;;;;4.30;4.00;;;7.50;99.90;;;;;;4914980;29;20272;-80
2023/03/05 05:09:26;;;;;;;5.00;4.50;;;7.50;99.90;;;;;;4915116;29;20460;-80
2023/03/05 05:11:52;;;;;;;6.07;4.20;;;7.60;99.90;;;;;;4898588;29;20517;-80
2023/03/05 05:14:21;;;;;;;8.70;4.87;;;7.50;99.90;;;;;;4915042;29;20446;-80
2023/03/05 05:16:46;;;;;;;4.20;3.90;;;7.60;99.90;;;;;;4915629;29;20194;-81
2023/03/05 05:19:12;;;;;;;7.23;4.80;;;7.60;99.90;;;;;;4915226;29;20537;-80
2023/03/05 05:21:38;;;;;;;7.13;4.67;;;7.50;99.90;;;;;;4914596;29;20229;-80
2023/03/05 05:24:04;;;;;;;5.90;5.03;;;7.50;99.90;;;;;;4898679;29;20553;-80
2023/03/05 05:26:30;;;;;;;6.20;5.10;;;7.50;99.90;;;;;;4914915;29;20508;-80
2023/03/05 05:28:59;;;;;;;6.20;5.43;;;7.50;99.90;;;;;;4916101;29;20426;-80
2023/03/05 05:31:24;;;;;;;7.70;5.57;;;7.50;99.90;;;;;;4913431;29;20465;-80
2023/03/05 05:33:50;;;;;;;8.40;5.73;;;7.50;99.90;;;;;;4915988;29;20436;-80
2023/03/05 05:36:18;;;;;;;7.27;6.17;;;7.50;99.90;;;;;;4912954;29;20190;-80
2023/03/05 05:38:44;;;;;;;6.23;5.20;;;7.50;99.90;;;;;;4912911;29;20218;-82
2023/03/05 05:41:12;;;;;;;9.20;6.80;;;7.60;99.90;;;;;;4915263;29;20500;-81
2023/03/05 05:43:39;;;;;;;10.30;6.50;;;7.50;99.90;;;;;;4912281;29;21020;-82
2023/03/05 05:46:14;;;;;;;9.60;7.60;;;7.50;99.90;;;;;;4914584;29;20442;-81
2023/03/05 05:48:40;;;;;;;10.90;8.93;;;7.50;99.90;;;;;;4914496;29;20420;-82
2023/03/05 05:51:08;;;;;;;10.43;8.70;;;7.50;99.90;;;;;;4915923;29;20468;-82
2023/03/05 05:53:35;;;;;;;13.10;9.60;;;7.60;99.90;;;;;;4913076;29;20859;-81
2023/03/05 05:56:05;;;;;;;12.13;9.60;;;7.60;99.90;;;;;;4914921;29;20442;-81
2023/03/05 05:58:31;;;;;;;13.37;11.00;;;7.60;99.90;;;;;;4913897;29;20425;-81
2023/03/05 06:00:56;;;;;;;18.70;11.83;;;7.60;99.90;;;;;;4898131;29;20504;-81
2023/03/05 06:03:22;;;;;;;16.83;12.60;;;7.60;99.90;;;;;;4913684;29;20189;-81
2023/03/05 06:05:48;;;;;;;18.90;12.60;;;7.70;99.90;;;;;;4913547;29;20188;-81
2023/03/05 06:08:13;;;;;;;18.93;13.07;;;7.60;99.90;;;;;;4913768;29;20583;-81
2023/03/05 06:10:39;;;;;;;17.63;12.10;;;7.60;99.90;;;;;;4913986;29;20212;-81
2023/03/05 06:13:05;;;;;;;16.37;11.50;;;7.50;99.90;;;;;;4915474;29;20535;-81
2023/03/05 06:15:31;;;;;;;16.53;11.03;;;7.50;99.90;;;;;;4911712;29;20227;-80
2023/03/05 06:17:58;;;;;;;20.93;12.50;;;7.50;99.90;;;;;;4910738;29;20729;-81
2023/03/05 06:20:24;;;;;;;19.20;13.10;;;7.50;99.90;;;;;;4911831;29;20634;-80
2023/03/05 06:22:50;;;;;;;16.73;11.00;;;7.50;99.90;;;;;;4911041;29;20451;-80
2023/03/05 06:25:15;;;;;;;17.50;12.10;;;7.50;99.90;;;;;;4910892;29;20635;-80
2023/03/05 06:27:41;;;;;;;15.80;11.30;;;7.40;99.90;;;;;;4911190;29;20318;-80
2023/03/05 06:30:08;;;;;;;16.70;11.20;;;7.50;99.90;;;;;;4910714;29;20587;-80
2023/03/05 06:32:34;;;;;;;21.03;12.70;;;7.40;99.90;;;;;;4913241;29;20283;-80
2023/03/05 06:35:00;;;;;;;13.97;11.20;;;7.40;99.90;;;;;;4915424;29;20953;-81
2023/03/05 06:37:26;;;;;;;15.50;11.20;;;7.40;99.90;;;;;;4917231;29;20272;-83
2023/03/05 06:39:51;;;;;;;15.67;10.77;;;7.40;99.90;;;;;;4917955;29;20197;-79
2023/03/05 06:42:18;;;;;;;15.53;11.13;;;7.50;99.90;;;;;;4916852;29;20662;-79
2023/03/05 06:44:44;;;;;;;18.90;12.30;;;7.40;99.90;;;;;;4918277;29;20256;-79
2023/03/05 06:47:10;;;;;;;20.80;11.53;;;7.40;99.90;;;;;;4917483;29;20447;-79
2023/03/05 06:49:36;;;;;;;19.00;11.87;;;7.40;99.90;;;;;;4915759;29;20447;-79
2023/03/05 06:52:03;;;;;;;19.10;11.80;;;7.40;99.90;;;;;;4918225;29;20479;-79
2023/03/05 06:54:29;;;;;;;18.73;12.40;;;7.40;99.90;;;;;;4918606;29;20526;-79
2023/03/05 06:56:54;;;;;;;19.50;13.00;;;7.40;99.90;;;;;;4917108;29;21063;-79
2023/03/05 06:59:20;;;;;;;19.80;12.50;;;7.30;99.90;;;;;;4915860;29;20276;-79
2023/03/05 07:01:46;;;;;;;19.33;12.70;;;7.50;99.90;;;;;;4918947;29;20265;-80
2023/03/05 07:04:12;;;;;;;23.23;14.67;;;7.40;99.90;;;;;;4920166;29;20483;-79
2023/03/05 07:06:41;;;;;;;21.40;14.00;;;7.40;99.90;;;;;;4921298;29;20740;-80
2023/03/05 07:09:09;;;;;;;21.90;14.23;;;7.50;99.90;;;;;;4918101;29;20434;-80
2023/03/05 07:11:35;;;;;;;17.60;11.90;;;7.50;99.90;;;;;;4914306;29;20537;-81
2023/03/05 07:14:02;;;;;;;17.63;13.07;;;7.50;99.90;;;;;;4900966;29;20980;-81
2023/03/05 07:16:30;;;;;;;19.40;12.73;;;7.50;99.90;;;;;;4916612;29;20465;-79
2023/03/05 07:18:58;;;;;;;18.77;14.80;;;7.50;99.90;;;;;;4917157;29;20486;-78
2023/03/05 07:21:26;;;;;;;19.17;12.80;;;8.00;99.90;;;;;;4916370;29;20493;-80
2023/03/05 07:23:54;;;;;;;14.93;11.53;;;8.60;99.90;;;;;;4915958;29;20438;-80
2023/03/05 07:26:20;;;;;;;14.10;9.23;;;9.20;99.90;;;;;;4916856;29;20445;-80
2023/03/05 07:28:45;;;;;;;12.67;9.00;;;9.80;99.90;;;;;;4916056;29;20438;-80
2023/03/05 07:31:15;;;;;;;11.73;9.13;;;10.30;99.90;;;;;;4916828;29;20557;-80
2023/03/05 07:33:40;;;;;;;9.13;7.90;;;10.70;99.90;;;;;;4916168;29;20189;-80
2023/03/05 07:36:08;;;;;;;10.10;8.63;;;11.10;99.90;;;;;;4913107;29;20839;-80
2023/03/05 07:38:33;;;;;;;11.50;10.00;;;11.40;99.90;;;;;;4916395;29;20190;-80
2023/03/05 07:41:08;;;;;;;11.83;9.10;;;11.80;99.90;;;;;;4917353;29;20505;-80
2023/03/05 07:43:34;;;;;;;10.90;9.73;;;12.00;99.90;;;;;;4914693;29;20327;-80
2023/03/05 07:46:03;;;;;;;12.00;9.63;;;12.30;99.90;;;;;;4914723;29;20562;-80
2023/03/05 07:48:29;;;;;;;12.17;9.53;;;12.50;98.80;;;;;;4914756;29;20695;-80
2023/03/05 07:51:03;;;;;;;11.37;10.20;;;12.70;97.70;;;;;;4911619;29;20553;-81
2023/03/05 07:53:28;;;;;;;11.97;9.10;;;12.80;97.00;;;;;;4897326;29;20202;-80
2023/03/05 07:55:54;;;;;;;10.10;9.10;;;12.90;96.30;;;;;;4916571;29;20839;-80
2023/03/05 07:58:20;;;;;;;9.10;7.80;;;13.00;96.30;;;;;;4914150;29;20183;-81
2023/03/05 08:00:46;;;;;;;9.23;8.40;;;13.20;95.80;;;;;;4915705;29;20688;-81
2023/03/05 08:03:11;;;;;;;9.37;7.60;;;13.20;94.00;;;;;;4916178;29;20191;-80
2023/03/05 08:05:41;;;;;;;11.67;7.90;;;13.30;94.70;;;;;;4912269;29;20187;-80
2023/03/05 08:08:07;;;;;;;8.50;7.70;;;13.30;93.80;;;;;;4906244;29;20269;-80
2023/03/05 08:10:34;;;;;;;8.63;7.70;;;13.40;94.60;;;;;;4916703;29;20491;-81
2023/03/05 08:13:00;;;;;;;10.80;8.57;;;13.60;95.00;;;;;;4916299;29;20980;-81
2023/03/05 08:15:26;;;;;;;10.97;9.97;;;13.60;93.30;;;;;;4916888;29;20440;-81
2023/03/05 08:17:51;;;;;;;18.60;11.60;;;13.70;94.00;;;;;;4911831;29;20192;-82
2023/03/05 08:20:18;;;;;;;12.93;10.80;;;13.90;93.60;;;;;;4911912;29;20194;-83
2023/03/05 08:22:44;;;;;;;14.00;11.73;;;13.60;90.40;;;;;;4909541;29;20186;-82
2023/03/05 08:25:10;;;;;;;14.90;12.33;;;13.00;89.70;;;;;;4899195;29;20455;-81
2023/03/05 08:27:44;;;;;;;14.13;12.50;;;12.60;90.50;;;;;;4916269;29;20501;-81
2023/03/05 08:30:16;;;;;;;15.50;13.07;;;12.10;91.60;;;;;;4915084;29;20459;-81
2023/03/05 08:32:41;;;;;;;16.33;13.17;;;11.60;93.00;;;;;;4914055;29;20434;-81
2023/03/05 08:35:08;;;;;;;17.57;13.33;;;11.20;94.50;;;;;;4911335;29;20781;-81
2023/03/05 08:37:34;;;;;;;18.77;15.50;;;10.80;96.10;;;;;;4915996;29;20210;-81
2023/03/05 08:40:00;;;;;;;19.70;14.73;;;10.40;97.30;;;;;;4898378;29;20416;-80
2023/03/05 08:42:26;;;;;;;19.87;14.37;;;10.10;98.50;;;;;;4908057;29;20472;-81
2023/03/05 08:44:52;;;;;;;20.90;15.17;;;9.80;99.90;;;;;;4915736;29;20434;-80
2023/03/05 08:47:19;;;;;;;23.43;16.10;;;9.60;99.90;;;;;;4914342;29;20273;-80
2023/03/05 08:49:45;;;;;;;26.03;16.00;;;9.40;99.90;;;;;;4914354;29;20187;-81
2023/03/05 08:52:11;;;;;;;25.83;17.57;;;9.20;99.90;;;;;;4916347;29;20769;-80
2023/03/05 08:54:37;;;;;;;27.43;17.73;;;9.10;99.90;;;;;;4915404;29;20446;-84
2023/03/05 08:57:03;;;;;;;30.80;15.90;;;9.10;99.90;;;;;;4912271;29;20485;-81
2023/03/05 08:59:29;;;;;;;22.20;16.40;;;9.10;99.90;;;;;;4913079;29;20456;-80
2023/03/05 09:02:00;;;;;;;22.93;15.43;;;9.10;99.90;;;;;;4914235;29;21112;-81
2023/03/05 09:04:26;;;;;;;23.03;14.70;;;9.00;99.90;;;;;;4909249;29;20489;-83
2023/03/05 09:06:51;;;;;;;19.97;14.17;;;8.90;99.90;;;;;;4910838;29;20463;-80
2023/03/05 09:09:20;;;;;;;19.33;13.03;;;8.90;99.90;;;;;;4913261;29;20186;-81
2023/03/05 09:11:46;;;;;;;15.33;13.10;;;8.90;99.90;;;;;;4914886;29;20310;-79
2023/03/05 09:14:12;;;;;;;14.10;11.63;;;8.90;99.90;;;;;;4915699;29;20533;-80
2023/03/05 09:16:39;;;;;;;12.63;11.27;;;8.70;99.90;;;;;;4915353;29;20494;-89
2023/03/05 09:19:07;;;;;;;11.83;10.60;;;8.60;99.90;;;;;;4904736;29;20285;-81
2023/03/05 09:21:33;;;;;;;12.37;11.00;;;8.50;99.90;;;;;;4914952;29;20467;-79
2023/03/05 09:23:59;;;;;;;15.07;12.23;;;8.50;99.90;;;;;;4914242;29;20434;-79
2023/03/05 09:26:25;;;;;;;14.57;12.10;;;8.40;99.90;;;;;;4914837;29;20441;-78
2023/03/05 09:28:51;;;;;;;16.00;13.03;;;8.40;99.90;;;;;;4914690;29;20525;-78
2023/03/05 09:31:17;;;;;;;14.47;12.93;;;8.40;99.90;;;;;;4915402;29;20465;-80
2023/03/05 09:33:43;;;;;;;16.20;13.80;;;8.40;99.90;;;;;;4914065;29;20341;-84
2023/03/05 09:36:22;;;;;;;16.40;13.13;;;8.30;99.90;;;;;;4915172;29;20532;-78
2023/03/05 09:38:49;;;;;;;16.17;14.50;;;8.40;99.90;;;;;;4913556;29;20496;-77
2023/03/05 09:41:20;;;;;;;17.90;14.80;;;8.30;99.90;;;;;;4914795;29;20450;-79
2023/03/05 09:44:08;;;;;;;16.83;13.97;;;8.30;99.90;;;;;;4912764;29;20470;-78
2023/03/05 09:46:48;;;;;;;18.57;15.17;;;8.30;99.90;;;;;;4914878;29;20542;-78
2023/03/05 09:49:26;;;;;;;20.43;14.70;;;8.30;99.90;;;;;;4915867;29;20785;-78
2023/03/05 09:52:00;;;;;;;16.70;14.10;;;8.30;99.90;;;;;;4912962;29;20816;-79
2023/03/05 09:54:40;;;;;;;14.93;13.40;;;8.30;99.90;;;;;;4913888;29;20804;-81
2023/03/05 09:57:17;;;;;;;15.00;13.43;;;8.30;99.90;;;;;;4915250;29;20828;-78
2023/03/05 10:00:07;;;;;;;13.63;12.23;;;8.30;99.90;;;;;;4915568;29;20411;-79
2023/03/05 10:02:38;;;;;;;230.87;136.80;;;8.30;99.90;;;;;;4908474;29;20422;-79
2023/03/05 10:05:41;;;;;;;39.47;27.00;;;8.30;99.90;;;;;;4897634;29;20490;-78
2023/03/05 10:08:10;;;;;;;16.70;13.73;;;8.30;99.90;;;;;;4915598;29;20447;-79
2023/03/05 10:10:41;;;;;;;16.40;13.23;;;8.30;99.90;;;;;;4917814;29;20954;-78
2023/03/05 10:13:37;;;;;;;13.60;12.30;;;8.30;99.90;;;;;;4918016;29;21029;-80
2023/03/05 10:16:21;;;;;;;13.60;12.03;;;8.30;99.90;;;;;;4911210;29;20540;-79
2023/03/05 10:19:02;;;;;;;13.13;11.93;;;8.30;99.90;;;;;;4915385;29;20448;-79
2023/03/05 10:21:39;;;;;;;13.70;12.23;;;8.20;99.90;;;;;;4919059;29;20521;-79
2023/03/05 10:24:29;;;;;;;14.10;12.20;;;8.10;99.90;;;;;;4919789;29;20465;-79
2023/03/05 10:27:19;;;;;;;12.77;11.47;;;8.10;99.90;;;;;;4918742;29;20480;-79
2023/03/05 10:30:23;;;;;;;13.00;11.70;;;8.10;99.90;;;;;;4917551;29;20528;-80
2023/03/05 10:33:04;;;;;;;14.73;13.23;;;8.10;99.90;;;;;;4908093;29;20456;-79
2023/03/05 10:35:33;;;;;;;16.07;13.70;;;8.10;99.90;;;;;;4922099;29;20493;-79
2023/03/05 10:38:07;;;;;;;14.67;12.20;;;8.20;99.90;;;;;;4917767;29;20572;-79
2023/03/05 10:40:47;;;;;;;15.93;12.57;;;8.30;99.90;;;;;;4916678;29;20452;-79
2023/03/05 10:43:36;;;;;;;17.90;13.43;;;8.40;99.90;;;;;;4919704;29;20861;-79
2023/03/05 10:46:03;;;;;;;14.83;12.67;;;8.40;99.90;;;;;;4917855;29;20445;-80
2023/03/05 10:48:43;;;;;;;19.53;12.37;;;8.60;99.90;;;;;;4915571;29;20800;-81
2023/03/05 10:51:26;;;;;;;16.60;13.73;;;8.60;99.90;;;;;;4913883;29;20457;-82
2023/03/05 10:53:57;;;;;;;14.87;13.27;;;8.70;99.90;;;;;;4914712;29;20497;-82
2023/03/05 10:56:26;;;;;;;15.73;12.40;;;8.80;99.90;;;;;;4915726;29;20509;-81
2023/03/05 10:58:52;;;;;;;16.10;13.10;;;8.80;99.90;;;;;;4900799;29;20450;-82
2023/03/05 11:01:22;;;;;;;15.80;12.67;;;8.90;99.90;;;;;;4918438;29;20919;-81
2023/03/05 11:04:00;;;;;;;17.00;13.20;;;8.90;99.90;;;;;;4917480;29;21006;-82
2023/03/05 11:06:33;;;;;;;15.53;13.20;;;8.80;99.90;;;;;;4915181;29;20438;-81
2023/03/05 11:09:19;;;;;;;17.43;13.27;;;8.80;99.90;;;;;;4907057;29;20420;-81
2023/03/05 11:12:20;;;;;;;17.60;13.43;;;8.80;99.90;;;;;;4899712;29;20931;-82
2023/03/05 11:15:09;;;;;;;22.80;14.20;;;8.80;99.90;;;;;;4915054;29;20434;-82
2023/03/05 11:17:38;;;;;;;17.97;13.37;;;8.80;99.90;;;;;;4914280;29;20436;-82
2023/03/05 11:20:22;;;;;;;19.33;14.23;;;8.80;99.90;;;;;;4917724;29;20710;-82
2023/03/05 11:23:22;;;;;;;19.57;14.97;;;8.70;99.90;;;;;;4917275;29;20446;-82
2023/03/05 11:26:00;;;;;;;15.43;13.20;;;8.60;99.90;;;;;;4917158;29;20466;-83
2023/03/05 11:28:35;;;;;;;13.87;11.53;;;8.60;99.90;;;;;;4917791;29;20445;-82
2023/03/05 11:31:23;;;;;;;16.20;12.60;;;8.60;99.90;;;;;;4915852;29;21270;-82
2023/03/05 11:33:56;;;;;;;15.80;12.13;;;8.60;99.90;;;;;;4915432;29;20938;-83
2023/03/05 11:36:39;;;;;;;15.00;12.50;;;8.50;99.90;;;;;;4913221;29;20452;-82
2023/03/05 11:39:07;;;;;;;30.93;23.30;;;8.50;99.90;;;;;;4917576;29;20615;-82
2023/03/05 11:41:36;;;;;;;60.20;43.33;;;8.60;99.90;;;;;;4918127;29;20430;-82
2023/03/05 11:44:09;;;;;;;97.93;56.43;;;8.50;99.90;;;;;;4917607;29;20473;-79
2023/03/05 11:46:45;;;;;;;18.20;13.40;;;8.50;99.90;;;;;;4916616;29;20435;-79
2023/03/05 11:49:17;;;;;;;15.07;12.57;;;8.50;99.90;;;;;;4917049;29;20760;-82
2023/03/05 11:51:52;;;;;;;13.00;11.00;;;8.50;99.90;;;;;;4917798;29;20841;-85
2023/03/05 11:54:25;;;;;;;14.80;11.87;;;8.50;99.90;;;;;;4916019;29;20528;-84
2023/03/05 11:56:52;;;;;;;13.43;11.00;;;8.60;99.90;;;;;;4899474;29;20466;-82
2023/03/05 11:59:22;;;;;;;19.27;10.97;;;8.60;99.90;;;;;;4917964;29;20410;-81
2023/03/05 12:01:56;;;;;;;12.60;10.73;;;8.50;99.90;;;;;;4915686;29;21006;-87
2023/03/05 12:04:23;;;;;;;13.87;11.00;;;8.50;99.90;;;;;;4913102;29;20457;-84
2023/03/05 12:06:49;;;;;;;9.93;8.30;;;8.50;99.90;;;;;;4906397;29;20427;-83
2023/03/05 12:09:40;;;;;;;10.40;8.17;;;8.50;99.90;;;;;;4906641;29;20991;-87
2023/03/05 12:12:27;;;;;;;11.63;8.03;;;8.50;99.90;;;;;;4937947;29;20621;-81
2023/03/05 12:15:06;;;;;;;12.37;9.77;;;8.60;99.90;;;;;;4887298;29;20454;-83
2023/03/05 12:17:43;;;;;;;9.97;8.97;;;8.60;99.90;;;;;;4931247;29;20435;-92
2023/03/05 12:20:25;;;;;;;10.10;9.03;;;8.60;99.90;;;;;;4907785;29;20400;-85
2023/03/05 12:22:51;;;;;;;9.07;8.27;;;8.70;99.90;;;;;;4905123;29;20439;-85
2023/03/05 12:25:33;;;;;;;8.53;7.73;;;8.80;99.90;;;;;;4922817;29;20438;-81
2023/03/05 12:28:00;;;;;;;10.00;8.50;;;8.80;99.90;;;;;;4906253;29;20467;-82
2023/03/05 12:30:41;;;;;;;8.90;8.00;;;8.80;99.90;;;;;;4903617;29;20482;-85
2023/03/05 12:33:38;;;;;;;10.67;8.67;;;8.90;99.90;;;;;;4904734;29;20415;-86
2023/03/05 12:36:16;;;;;;;9.90;7.70;;;9.00;99.90;;;;;;4921789;29;20416;-89
2023/03/05 12:39:20;;;;;;;8.60;7.63;;;9.00;99.90;;;;;;4919771;29;20423;-85
2023/03/05 12:41:46;;;;;;;8.70;7.90;;;9.00;99.90;;;;;;4906221;29;20434;-82
2023/03/05 12:44:19;;;;;;;10.10;9.13;;;9.10;99.90;;;;;;4907206;29;21284;-82
2023/03/05 12:47:11;;;;;;;8.93;8.13;;;9.20;99.90;;;;;;4889683;29;20447;-86
2023/03/05 12:49:38;;;;;;;8.47;7.50;;;9.30;99.90;;;;;;4906162;29;20431;-88
2023/03/05 12:52:16;;;;;;;11.17;8.67;;;9.30;99.90;;;;;;4890594;29;20551;-88
2023/03/05 12:54:42;;;;;;;8.47;7.67;;;9.40;99.90;;;;;;4907490;29;20451;-84
2023/03/05 12:57:19;;;;;;;8.43;7.40;;;9.40;99.90;;;;;;4905178;29;20431;-85
2023/03/05 12:59:50;;;;;;;8.13;7.23;;;9.50;99.90;;;;;;4890512;29;20749;-84